This is the latest recevied weather packets stored in our database for station/object EFOU. If no packets are shown the sender has not sent any weather packets the latest 10 day(s).
| Time | Temp. | Humidity | Pressure | Rain* | Wind** | Luminosity | Snow |
|---|---|---|---|---|---|---|---|
| 1777696018 | 8.33° C | 62% | 1006.7 hPa | - | - | - | - |
| 1777694818 | 7.78° C | 62% | 1006.8 hPa | - | - | - | - |
| 1777693618 | 7.78° C | 60% | 1006.9 hPa | - | - | - | - |
| 1777692418 | 8.33° C | 60% | 1007.1 hPa | - | - | - | - |
| 1777691218 | 8.33° C | 60% | 1007.2 hPa | - | - | - | - |
| 1777690018 | 7.78° C | 61% | 1007.6 hPa | - | - | - | - |
| 1777688818 | 7.78° C | 63% | 1007.8 hPa | - | - | - | - |
| 1777687618 | 7.22° C | 62% | 1007.9 hPa | - | - | - | - |
| 1777686418 | 7.22° C | 63% | 1008.2 hPa | - | - | - | - |
| 1777685218 | 7.22° C | 63% | 1008.4 hPa | - | - | - | - |
| 1777684018 | 7.22° C | 63% | 1008.6 hPa | - | - | - | - |
| 1777682818 | 7.22° C | 62% | 1008.7 hPa | - | - | - | - |
| 1777681617 | 7.22° C | 61% | 1009 hPa | - | - | - | - |
| 1777680418 | 7.78° C | 60% | 1009 hPa | - | - | - | - |
| 1777679217 | 7.78° C | 60% | 1009.2 hPa | - | - | - | - |
| 1777678017 | 7.78° C | 58% | 1009.1 hPa | - | - | - | - |
| 1777676817 | 6.67° C | 64% | 1009.1 hPa | - | - | - | - |
| 1777675617 | 6.11° C | 70% | 1009.3 hPa | - | - | - | - |
| 1777674418 | 6.11° C | 69% | 1009.7 hPa | - | - | - | - |
| 1777673217 | 5.56° C | 73% | 1009.8 hPa | - | - | - | - |
| 1777672017 | 6.67° C | 67% | 1009.9 hPa | - | - | - | - |
| 1777670817 | 7.22° C | 67% | 1010 hPa | - | - | - | - |
| 1777669617 | 7.22° C | 66% | 1010.3 hPa | - | - | - | - |
| 1777668417 | 7.78° C | 67% | 1010.5 hPa | - | - | - | - |
| 1777667217 | 7.78° C | 67% | 1010.4 hPa | - | - | - | - |
* Rain since midnight (hover to see other rain measurements)
** Current wind speed in m/s (hover to see current wind gust speed)